createdAt,value
2023-03-22T00:01:37.854Z,9.14
2023-03-22T00:04:05.446Z,9.12
2023-03-22T00:06:32.879Z,9.12
2023-03-22T00:09:01.568Z,9.07
2023-03-22T00:11:29.172Z,9.13
2023-03-22T00:13:59.000Z,9.11
2023-03-22T00:16:26.767Z,9.06
2023-03-22T00:18:54.182Z,9.02
2023-03-22T00:21:21.584Z,9.01
2023-03-22T00:23:49.105Z,9.08
2023-03-22T00:26:17.632Z,9.06
2023-03-22T00:28:45.155Z,9.13
2023-03-22T00:31:12.751Z,9.13
2023-03-22T00:33:40.930Z,9.20
2023-03-22T00:36:12.442Z,9.30
2023-03-22T00:38:44.218Z,9.49
2023-03-22T00:41:18.019Z,9.28
2023-03-22T00:43:47.457Z,9.19
2023-03-22T00:46:16.501Z,9.12
2023-03-22T00:48:44.536Z,9.03
2023-03-22T00:51:13.419Z,8.94
2023-03-22T00:53:43.047Z,8.89
2023-03-22T00:56:16.410Z,8.82
2023-03-22T00:58:49.002Z,8.74
2023-03-22T01:01:16.425Z,8.70
2023-03-22T01:03:44.259Z,8.82
2023-03-22T01:06:16.076Z,8.69
2023-03-22T01:08:43.825Z,8.83
2023-03-22T01:11:11.238Z,8.77
2023-03-22T01:13:39.532Z,8.65
2023-03-22T01:16:08.395Z,8.72
2023-03-22T01:18:36.783Z,8.65
2023-03-22T01:21:04.649Z,8.65
2023-03-22T01:23:32.216Z,8.49
2023-03-22T01:26:00.259Z,8.51
2023-03-22T01:28:29.032Z,8.46
2023-03-22T01:30:57.173Z,8.59
2023-03-22T01:33:24.686Z,8.47
2023-03-22T01:35:52.748Z,8.50
2023-03-22T01:38:20.594Z,8.50
2023-03-22T01:40:53.824Z,8.43
2023-03-22T01:43:21.906Z,8.36
2023-03-22T01:45:56.418Z,8.25
2023-03-22T01:48:35.670Z,8.33
2023-03-22T01:51:16.788Z,8.35
2023-03-22T01:54:03.140Z,8.36
2023-03-22T01:56:36.005Z,8.43
2023-03-22T01:59:05.127Z,8.32
2023-03-22T02:01:49.706Z,8.15
2023-03-22T02:04:20.939Z,8.11
2023-03-22T02:06:50.069Z,8.03
2023-03-22T02:09:22.192Z,7.88
2023-03-22T02:12:23.223Z,7.88
2023-03-22T02:15:07.022Z,7.87
2023-03-22T02:18:29.986Z,8.06
2023-03-22T02:21:18.033Z,8.08
2023-03-22T02:24:10.409Z,8.00
2023-03-22T02:27:06.600Z,8.01
2023-03-22T02:29:45.220Z,7.90
2023-03-22T02:32:19.222Z,7.92
2023-03-22T02:35:01.888Z,7.88
2023-03-22T02:37:48.139Z,7.85
2023-03-22T02:40:17.696Z,7.88
2023-03-22T02:42:54.687Z,7.67
2023-03-22T02:45:41.331Z,7.63
2023-03-22T02:48:30.757Z,7.82
2023-03-22T02:51:05.818Z,7.66
2023-03-22T02:53:42.402Z,7.64
2023-03-22T02:56:16.131Z,7.58
2023-03-22T02:58:57.476Z,7.62
2023-03-22T03:01:31.409Z,7.54
2023-03-22T03:04:04.869Z,7.40
2023-03-22T03:06:46.102Z,7.36
2023-03-22T03:09:18.236Z,7.27
2023-03-22T03:11:49.288Z,7.24
2023-03-22T03:14:24.425Z,7.14
2023-03-22T03:17:19.983Z,7.13
2023-03-22T03:19:56.524Z,7.14
2023-03-22T03:22:34.010Z,7.05
2023-03-22T03:25:11.895Z,7.00
2023-03-22T03:28:10.235Z,6.97
2023-03-22T03:31:00.600Z,6.96
2023-03-22T03:33:29.509Z,6.87
2023-03-22T03:36:08.160Z,6.88
2023-03-22T03:38:40.434Z,6.89
2023-03-22T03:41:13.833Z,6.95
2023-03-22T03:43:44.032Z,6.93
2023-03-22T03:46:12.155Z,6.94
2023-03-22T03:48:43.235Z,6.84
2023-03-22T03:51:11.542Z,6.81
2023-03-22T03:53:39.182Z,6.93
2023-03-22T03:56:07.214Z,6.86
2023-03-22T03:58:39.664Z,6.87
2023-03-22T04:01:07.733Z,6.99
2023-03-22T04:04:00.515Z,6.97
2023-03-22T04:06:40.326Z,6.89
2023-03-22T04:09:12.794Z,6.97
2023-03-22T04:11:45.287Z,7.08
2023-03-22T04:14:14.778Z,7.13
2023-03-22T04:16:42.155Z,7.10
2023-03-22T04:19:13.529Z,7.09
2023-03-22T04:21:41.421Z,7.14
2023-03-22T04:24:10.563Z,7.13
2023-03-22T04:26:41.747Z,7.13
2023-03-22T04:29:36.680Z,7.07
2023-03-22T04:32:25.370Z,7.29
2023-03-22T04:34:54.936Z,7.25
2023-03-22T04:37:24.689Z,7.42
2023-03-22T04:40:07.869Z,7.37
2023-03-22T04:42:40.648Z,7.47
2023-03-22T04:45:15.731Z,7.39
2023-03-22T04:47:47.688Z,7.35
2023-03-22T04:50:16.444Z,7.61
2023-03-22T04:52:50.878Z,7.54
2023-03-22T04:55:21.536Z,7.54
2023-03-22T04:57:49.516Z,7.42
2023-03-22T05:00:19.127Z,7.43
2023-03-22T05:02:48.600Z,7.46
2023-03-22T05:05:30.277Z,7.44
2023-03-22T05:08:01.142Z,7.42
2023-03-22T05:10:29.426Z,7.39
2023-03-22T05:12:58.902Z,7.35
2023-03-22T05:15:32.744Z,7.37
2023-03-22T05:18:02.360Z,7.48
2023-03-22T05:20:29.756Z,7.41
2023-03-22T05:23:10.270Z,7.42
2023-03-22T05:25:38.999Z,7.34
2023-03-22T05:28:06.580Z,7.42
2023-03-22T05:30:44.066Z,7.48
2023-03-22T05:33:23.560Z,7.63
2023-03-22T05:35:54.738Z,7.58
2023-03-22T05:38:23.349Z,7.84
2023-03-22T05:40:54.141Z,7.86
2023-03-22T05:43:22.484Z,7.97
2023-03-22T05:45:51.395Z,7.95
2023-03-22T05:48:47.963Z,8.05
2023-03-22T05:51:18.080Z,8.11
2023-03-22T05:53:49.156Z,8.20
2023-03-22T05:56:24.770Z,8.19
2023-03-22T05:59:00.986Z,8.25
2023-03-22T06:01:28.557Z,8.23
2023-03-22T06:04:25.417Z,8.20
2023-03-22T06:07:06.519Z,8.25
2023-03-22T06:10:04.878Z,8.34
2023-03-22T06:12:33.508Z,8.38
2023-03-22T06:15:11.561Z,8.45
2023-03-22T06:17:48.759Z,8.46
2023-03-22T06:20:21.432Z,8.45
2023-03-22T06:22:54.461Z,8.38
2023-03-22T06:25:21.931Z,8.36
2023-03-22T06:27:50.376Z,8.40
2023-03-22T06:30:19.340Z,8.45
2023-03-22T06:33:07.071Z,8.51
2023-03-22T06:35:38.527Z,8.55
2023-03-22T06:38:08.146Z,8.49
2023-03-22T06:40:37.791Z,8.51
2023-03-22T06:43:07.227Z,8.75
2023-03-22T06:45:37.284Z,8.65
2023-03-22T06:48:05.727Z,8.67
2023-03-22T06:50:57.167Z,8.69
2023-03-22T06:53:36.474Z,8.73
2023-03-22T06:56:05.739Z,8.84
2023-03-22T06:58:43.078Z,8.96
2023-03-22T07:01:10.848Z,8.98
2023-03-22T07:03:38.425Z,9.04
2023-03-22T07:06:14.049Z,9.35
2023-03-22T07:08:44.651Z,9.45
2023-03-22T07:11:15.656Z,9.44
2023-03-22T07:13:47.082Z,9.45
2023-03-22T07:16:20.135Z,9.48
2023-03-22T07:18:53.969Z,9.49
2023-03-22T07:21:21.504Z,9.60
2023-03-22T07:23:55.528Z,9.64
2023-03-22T07:26:27.793Z,9.75
2023-03-22T07:28:58.175Z,9.95
2023-03-22T07:31:29.829Z,10.22
2023-03-22T07:34:05.942Z,10.63
2023-03-22T07:36:41.779Z,10.66
2023-03-22T07:39:11.724Z,10.68
2023-03-22T07:41:44.398Z,10.86
2023-03-22T07:44:40.601Z,11.08
2023-03-22T07:47:14.210Z,11.16
2023-03-22T07:49:49.429Z,11.26
2023-03-22T07:52:21.287Z,11.58
2023-03-22T07:54:49.352Z,11.62
2023-03-22T07:57:16.922Z,11.69
2023-03-22T07:59:57.454Z,11.92
2023-03-22T08:02:33.580Z,12.16
2023-03-22T08:05:06.162Z,12.90
2023-03-22T08:07:41.522Z,13.10
2023-03-22T08:10:11.354Z,12.93
2023-03-22T08:12:38.934Z,12.79
2023-03-22T08:15:23.578Z,12.65
2023-03-22T08:17:51.572Z,12.56
2023-03-22T08:20:29.279Z,12.50
2023-03-22T08:23:01.326Z,12.45
2023-03-22T08:25:52.398Z,12.17
2023-03-22T08:28:20.507Z,12.45
2023-03-22T08:30:49.446Z,12.45
2023-03-22T08:33:17.046Z,12.71
2023-03-22T08:35:46.479Z,12.80
2023-03-22T08:38:14.794Z,12.72
2023-03-22T08:40:48.008Z,12.44
2023-03-22T08:43:19.947Z,12.45
2023-03-22T08:45:47.895Z,12.64
2023-03-22T08:48:17.490Z,12.97
2023-03-22T08:51:01.254Z,12.51
2023-03-22T08:53:37.907Z,12.62
2023-03-22T08:56:28.999Z,12.38
2023-03-22T08:59:09.928Z,12.19
2023-03-22T09:02:00.147Z,12.23
2023-03-22T09:04:27.749Z,12.45
2023-03-22T09:06:56.349Z,12.28
2023-03-22T09:09:23.950Z,12.34
2023-03-22T09:11:53.775Z,12.68
2023-03-22T09:14:21.840Z,12.90
2023-03-22T09:16:50.029Z,13.15
2023-03-22T09:19:17.747Z,13.31
2023-03-22T09:21:46.005Z,13.14
2023-03-22T09:24:24.068Z,13.12
2023-03-22T09:26:54.607Z,13.52
2023-03-22T09:29:22.355Z,13.92
2023-03-22T09:31:49.826Z,14.14
2023-03-22T09:34:22.644Z,14.27
2023-03-22T09:36:50.060Z,14.35
2023-03-22T09:39:20.845Z,14.45
2023-03-22T09:41:57.663Z,14.66
2023-03-22T09:44:34.244Z,15.03
2023-03-22T09:47:05.449Z,15.40
2023-03-22T09:49:52.548Z,15.25
2023-03-22T09:52:21.781Z,15.38
2023-03-22T09:54:52.239Z,15.28
2023-03-22T09:57:37.140Z,15.50
2023-03-22T10:00:48.123Z,16.13
2023-03-22T10:03:53.464Z,16.29
2023-03-22T10:06:23.037Z,16.75
2023-03-22T10:09:07.046Z,16.92
2023-03-22T10:11:57.556Z,16.74
2023-03-22T10:14:36.063Z,16.80
2023-03-22T10:17:10.669Z,16.87
2023-03-22T10:19:44.112Z,16.11
2023-03-22T10:22:16.665Z,15.27
2023-03-22T10:24:48.908Z,15.04
2023-03-22T10:27:19.869Z,15.00
2023-03-22T10:30:18.789Z,14.55
2023-03-22T10:33:02.814Z,14.99
2023-03-22T10:35:32.000Z,14.60
2023-03-22T10:38:04.737Z,14.25
2023-03-22T10:40:36.614Z,13.91
2023-03-22T10:43:14.664Z,13.95
2023-03-22T10:45:43.334Z,14.29
2023-03-22T10:48:24.182Z,14.59
2023-03-22T10:50:55.547Z,14.66
2023-03-22T10:53:48.394Z,15.86
2023-03-22T10:56:21.073Z,16.02
2023-03-22T10:58:55.567Z,16.57
2023-03-22T11:01:30.023Z,15.99
2023-03-22T11:04:13.756Z,15.26
2023-03-22T11:06:54.874Z,15.30
2023-03-22T11:09:24.849Z,16.56
2023-03-22T11:12:00.435Z,17.09
2023-03-22T11:14:28.019Z,17.50
2023-03-22T11:16:58.545Z,17.58
2023-03-22T11:19:40.484Z,16.99
2023-03-22T11:22:27.527Z,16.72
2023-03-22T11:24:56.953Z,16.79
2023-03-22T11:27:37.156Z,16.66
2023-03-22T11:30:28.954Z,16.19
2023-03-22T11:33:17.411Z,16.56
2023-03-22T11:35:47.720Z,16.62
2023-03-22T11:38:30.425Z,16.55
2023-03-22T11:41:04.904Z,16.74
2023-03-22T11:43:48.570Z,16.51
2023-03-22T11:46:21.450Z,16.39
2023-03-22T11:48:52.137Z,16.22
2023-03-22T11:51:29.938Z,16.28
2023-03-22T11:54:02.398Z,15.86
2023-03-22T11:56:30.594Z,16.14
2023-03-22T11:59:09.178Z,16.31
2023-03-22T12:01:49.353Z,16.39
2023-03-22T12:04:22.957Z,16.36
2023-03-22T12:06:55.513Z,16.62
2023-03-22T12:09:32.885Z,16.85
2023-03-22T12:12:03.894Z,16.98
2023-03-22T12:14:49.036Z,17.53
2023-03-22T12:17:35.553Z,17.45
2023-03-22T12:20:23.004Z,17.75
2023-03-22T12:22:54.693Z,17.80
2023-03-22T12:25:29.360Z,17.61
2023-03-22T12:28:02.365Z,16.90
2023-03-22T12:30:33.967Z,16.72
2023-03-22T12:33:13.678Z,17.18
2023-03-22T12:35:45.646Z,17.09
2023-03-22T12:38:40.795Z,16.74
2023-03-22T12:41:15.693Z,16.56
2023-03-22T12:44:06.019Z,16.64
2023-03-22T12:46:51.732Z,16.69
2023-03-22T12:49:47.350Z,16.39
2023-03-22T12:52:21.769Z,16.20
2023-03-22T12:54:51.190Z,16.51
2023-03-22T12:57:19.253Z,16.33
2023-03-22T12:59:53.492Z,16.63
2023-03-22T13:02:33.229Z,17.05
2023-03-22T13:05:05.091Z,17.12
2023-03-22T13:07:38.650Z,16.77
2023-03-22T13:10:31.494Z,16.57
2023-03-22T13:13:31.633Z,16.75
2023-03-22T13:16:08.604Z,16.89
2023-03-22T13:18:36.493Z,17.13
2023-03-22T13:21:17.916Z,17.47
2023-03-22T13:23:57.818Z,17.15
2023-03-22T13:26:48.311Z,16.32
2023-03-22T13:29:25.456Z,16.14
2023-03-22T13:32:02.320Z,15.88
2023-03-22T13:34:44.365Z,15.75
2023-03-22T13:37:30.514Z,15.86
2023-03-22T13:40:02.550Z,16.13
2023-03-22T13:42:39.565Z,16.40
2023-03-22T13:45:32.462Z,16.30
2023-03-22T13:48:05.478Z,16.21
2023-03-22T13:50:34.597Z,16.05
2023-03-22T13:53:21.588Z,15.99
2023-03-22T13:55:49.428Z,16.17
2023-03-22T13:58:36.504Z,16.37
2023-03-22T14:01:08.026Z,16.16
2023-03-22T14:03:43.503Z,16.01
2023-03-22T14:06:20.698Z,15.85
2023-03-22T14:08:53.615Z,15.90
2023-03-22T14:11:30.009Z,15.85
2023-03-22T14:14:04.266Z,15.82
2023-03-22T14:16:42.942Z,15.81
2023-03-22T14:19:18.931Z,16.29
